Terminal Aerodrome Forecast
Issued by NWS

Home | Current Version | Previous Version | Text Only | Print | Product List | Glossary On
Versions: 1 2 3 4 5 6 7 8 9 10 11 12 13 14 15 16 17 18 19 20 21 22 23 24 25 26 27 28 29 30 31 32 33 34 35 36 37 38 39 40 41 42 43 44 45 46 47 48 49 50
000
FTUS45 KBOU 260157 AAC
TAFAPA
TAF AMD
KAPA 260157Z 2602/2624 09006KT 5SM TSRA BKN035CB OVC050
     FM260230 13009KT P6SM SCT040 BKN080
     FM260600 19008KT P6SM SCT080 BKN120
     FM261400 VRB05KT P6SM FEW080 SCT130 BKN220
     FM262100 06006KT P6SM SCT060 BKN120 PROB30 2621/2624 -TSRA
      BKN060CB=

USA.gov is the U.S. government's official web portal to all federal, state and local government web resources and services.